Time;durP1;ratioP1;P1;durP2;ratioP2;P2;SDS_P1;SDS_P2;PMS_P1;PMS_P2;Temp;Humidity;BMP_temperature;BMP_pressure;BME280_temperature;BME280_humidity;BME280_pressure;Samples;Min_cycle;Max_cycle;Signal;HPM_P1;HPM_P2
2022/03/27 18:19:40;;;;;;;0.00;0.00;;;14.50;80.50;;;;;;5023835;27;2877055;-67
2022/03/27 18:22:05;;;;;;;0.00;0.00;;;14.30;75.90;;;;;;5078533;28;20048;-65
2022/03/27 18:24:31;;;;;;;0.00;0.00;;;14.30;77.90;;;;;;5059610;28;20021;-67
2022/03/27 18:26:58;;;;;;;0.00;0.00;;;14.30;76.90;;;;;;5071562;28;20032;-78
2022/03/27 18:29:25;;;;;;;0.00;0.00;;;14.20;75.10;;;;;;5083956;28;20033;-64
2022/03/27 18:31:52;;;;;;;0.00;0.00;;;14.20;72.70;;;;;;5063140;28;20021;-70
2022/03/27 18:34:19;;;;;;;0.00;0.00;;;14.10;73.70;;;;;;5068623;28;20012;-77
2022/03/27 18:36:46;;;;;;;0.00;0.00;;;14.10;72.50;;;;;;5082015;28;20028;-68
2022/03/27 18:39:13;;;;;;;0.00;0.00;;;14.00;72.40;;;;;;5081812;28;20046;-68
2022/03/27 18:41:40;;;;;;;0.00;0.00;;;14.00;74.00;;;;;;5082196;28;20310;-75
2022/03/27 18:44:06;;;;;;;0.00;0.00;;;14.00;73.70;;;;;;5062617;28;20309;-66
2022/03/27 18:46:33;;;;;;;0.00;0.00;;;13.90;72.70;;;;;;5070222;28;20344;-74
2022/03/27 18:48:59;;;;;;;0.00;0.00;;;13.90;74.80;;;;;;5062154;28;20131;-72
2022/03/27 18:51:26;;;;;;;0.00;0.00;;;13.90;73.10;;;;;;5063192;28;20028;-66
2022/03/27 18:53:53;;;;;;;0.00;0.00;;;13.90;73.90;;;;;;5078090;28;20323;-65
2022/03/27 18:56:20;;;;;;;0.00;0.00;;;13.80;74.00;;;;;;5061464;28;20027;-66
2022/03/27 18:58:47;;;;;;;0.00;0.00;;;13.80;73.10;;;;;;5080675;28;20206;-65
2022/03/27 19:01:15;;;;;;;0.00;0.00;;;13.80;72.50;;;;;;5081170;28;20322;-66
2022/03/27 19:03:42;;;;;;;0.00;0.00;;;13.70;71.70;;;;;;5098529;28;20099;-66
2022/03/27 19:06:12;;;;;;;0.00;0.00;;;13.70;71.30;;;;;;5081729;28;20023;-67
2022/03/27 19:08:38;;;;;;;0.00;0.00;;;13.70;71.70;;;;;;5080089;28;20089;-67
2022/03/27 19:11:07;;;;;;;0.00;0.00;;;13.70;71.60;;;;;;5098922;28;20098;-66
2022/03/27 19:13:37;;;;;;;0.00;0.00;;;13.60;71.40;;;;;;5080602;28;20038;-70
2022/03/27 19:16:03;;;;;;;0.00;0.00;;;13.60;72.30;;;;;;5080906;28;20198;-66
2022/03/27 19:18:39;;;;;;;0.00;0.00;;;13.50;71.70;;;;;;5075980;28;20045;-75
2022/03/27 19:21:15;;;;;;;0.00;0.00;;;13.50;72.50;;;;;;5064244;28;20031;-64
2022/03/27 19:23:41;;;;;;;0.00;0.00;;;13.50;73.50;;;;;;5064710;28;20089;-65
2022/03/27 19:26:07;;;;;;;0.00;0.00;;;13.40;73.70;;;;;;5065005;28;20025;-69
2022/03/27 19:28:33;;;;;;;0.00;0.00;;;13.40;75.00;;;;;;5045194;28;20121;-74
2022/03/27 19:30:59;;;;;;;0.00;0.00;;;13.40;74.30;;;;;;5045257;28;20025;-66
2022/03/27 19:33:25;;;;;;;0.00;0.00;;;13.40;74.60;;;;;;5044748;28;20076;-66
2022/03/27 19:35:51;;;;;;;0.00;0.00;;;13.40;74.80;;;;;;5043091;28;20076;-65
2022/03/27 19:38:17;;;;;;;0.00;0.00;;;13.30;73.90;;;;;;5044210;28;20021;-65
2022/03/27 19:40:44;;;;;;;0.00;0.00;;;13.30;73.20;;;;;;5044412;28;20033;-66
2022/03/27 19:43:12;;;;;;;0.00;0.00;;;13.30;72.20;;;;;;5043852;28;20052;-65
2022/03/27 19:45:39;;;;;;;0.00;0.00;;;13.20;74.50;;;;;;5044404;28;20043;-67
2022/03/27 19:48:05;;;;;;;0.00;0.00;;;13.20;76.10;;;;;;5031480;28;20036;-66
2022/03/27 19:50:32;;;;;;;0.00;0.00;;;13.20;74.80;;;;;;5025111;28;20049;-66
2022/03/27 19:52:58;;;;;;;0.00;0.00;;;13.20;75.20;;;;;;5023006;28;20014;-68
2022/03/27 19:55:28;;;;;;;0.00;0.00;;;13.10;74.50;;;;;;5026897;28;20021;-66
2022/03/27 19:57:57;;;;;;;0.00;0.00;;;13.10;74.60;;;;;;5042943;28;20104;-68
2022/03/27 20:00:24;;;;;;;0.00;0.00;;;13.10;74.70;;;;;;5043319;28;20088;-66
2022/03/27 20:02:51;;;;;;;0.00;0.00;;;13.00;75.20;;;;;;5043629;28;20059;-66
2022/03/27 20:05:20;;;;;;;0.00;0.00;;;13.10;77.90;;;;;;5040284;28;20284;-65
2022/03/27 20:07:46;;;;;;;;;;;13.10;76.90;;;;;;5024283;28;20033;-67
2022/03/27 20:10:13;;;;;;;0.00;0.00;;;13.00;76.40;;;;;;5024461;28;20187;-66
2022/03/27 20:12:43;;;;;;;0.00;0.00;;;13.00;77.20;;;;;;5023624;28;20060;-67
2022/03/27 20:15:10;;;;;;;0.00;0.00;;;12.90;76.10;;;;;;5025883;28;20021;-69
2022/03/27 20:17:35;;;;;;;0.00;0.00;;;12.90;75.30;;;;;;5045223;28;20048;-74
2022/03/27 20:20:03;;;;;;;0.00;0.00;;;12.90;76.40;;;;;;5084191;28;20016;-66
2022/03/27 20:22:29;;;;;;;0.00;0.00;;;12.80;77.80;;;;;;5083935;28;20120;-69
2022/03/27 20:24:55;;;;;;;0.00;0.00;;;12.80;76.50;;;;;;5065559;28;20229;-66
2022/03/27 20:27:22;;;;;;;0.00;0.00;;;12.80;76.60;;;;;;5083412;28;20238;-67
2022/03/27 20:29:48;;;;;;;0.00;0.00;;;12.70;77.00;;;;;;5083395;28;20041;-67
2022/03/27 20:32:14;;;;;;;0.00;0.00;;;12.70;77.80;;;;;;5064946;28;20021;-65
2022/03/27 20:34:41;;;;;;;0.00;0.00;;;12.70;77.60;;;;;;5083625;28;20020;-67
2022/03/27 20:37:08;;;;;;;0.00;0.00;;;12.70;77.50;;;;;;5066212;28;20025;-65
2022/03/27 20:39:34;;;;;;;0.00;0.00;;;12.70;77.40;;;;;;5064041;28;20028;-67
2022/03/27 20:42:02;;;;;;;0.00;0.00;;;12.60;75.80;;;;;;5063541;28;20262;-66
2022/03/27 20:44:30;;;;;;;0.00;0.00;;;12.60;74.20;;;;;;5064333;28;20013;-66
2022/03/27 20:46:56;;;;;;;0.00;0.00;;;12.60;74.40;;;;;;5063639;28;20024;-66
2022/03/27 20:49:26;;;;;;;0.00;0.00;;;12.60;74.10;;;;;;5046132;28;20048;-65
2022/03/27 20:51:52;;;;;;;0.00;0.00;;;12.50;73.20;;;;;;5045006;28;20143;-65
2022/03/27 20:54:18;;;;;;;0.00;0.00;;;12.50;72.00;;;;;;5063256;28;20024;-66
2022/03/27 20:56:48;;;;;;;0.00;0.00;;;12.50;72.60;;;;;;5058643;28;20025;-66
2022/03/27 20:59:14;;;;;;;0.00;0.00;;;12.50;71.90;;;;;;5065303;28;20322;-65
2022/03/27 21:01:40;;;;;;;0.00;0.00;;;12.50;73.30;;;;;;5083043;28;20016;-73
2022/03/27 21:04:06;;;;;;;0.00;0.00;;;12.50;74.00;;;;;;5065361;28;20061;-65
2022/03/27 21:06:33;;;;;;;0.00;0.00;;;12.50;74.80;;;;;;5071243;28;20035;-67
2022/03/27 21:09:01;;;;;;;0.00;0.00;;;12.50;75.20;;;;;;5045064;28;20043;-64
2022/03/27 21:11:27;;;;;;;0.00;0.00;;;12.50;75.60;;;;;;5063269;28;20047;-65
2022/03/27 21:13:54;;;;;;;0.00;0.00;;;12.40;77.70;;;;;;5062574;28;20023;-65
2022/03/27 21:16:20;;;;;;;0.00;0.00;;;12.40;75.60;;;;;;5055228;28;20192;-65
2022/03/27 21:18:46;;;;;;;0.00;0.00;;;12.40;73.70;;;;;;5081948;28;20048;-65
2022/03/27 21:23:57;;;;;;;0.00;0.00;;;12.40;74.40;;;;;;5082147;28;20023;-65
2022/03/27 21:26:24;;;;;;;0.00;0.00;;;12.40;73.20;;;;;;5072475;28;20033;-65
2022/03/27 21:28:50;;;;;;;0.00;0.00;;;12.40;72.50;;;;;;5044270;28;20075;-65
2022/03/27 21:31:19;;;;;;;0.00;0.00;;;12.30;71.80;;;;;;5044801;28;20021;-66
2022/03/27 21:34:23;;;;;;;0.00;0.00;;;12.30;71.40;;;;;;5044490;28;20044;-65
2022/03/27 21:36:49;;;;;;;0.00;0.00;;;12.30;70.80;;;;;;5044388;28;20048;-66
2022/03/27 21:39:16;;;;;;;0.00;0.00;;;12.30;69.80;;;;;;5044683;28;20025;-66
2022/03/27 21:41:43;;;;;;;0.00;0.00;;;12.20;69.50;;;;;;5062172;28;20082;-74
2022/03/27 21:44:10;;;;;;;0.00;0.00;;;12.20;69.80;;;;;;5044620;28;20021;-66
2022/03/27 21:46:35;;;;;;;0.00;0.00;;;12.20;69.40;;;;;;5074286;28;20027;-66
2022/03/27 21:49:01;;;;;;;0.00;0.00;;;12.20;69.90;;;;;;5063976;28;20054;-65
2022/03/27 21:51:28;;;;;;;0.00;0.00;;;12.20;70.40;;;;;;5082510;28;20248;-66
2022/03/27 21:53:54;;;;;;;0.00;0.00;;;12.10;75.60;;;;;;5081659;28;20035;-65
2022/03/27 21:56:19;;;;;;;0.00;0.00;;;12.10;75.40;;;;;;5055527;28;20061;-66
2022/03/27 21:58:45;;;;;;;0.00;0.00;;;12.00;74.70;;;;;;5043699;28;20039;-66
2022/03/27 22:01:16;;;;;;;0.00;0.00;;;12.00;76.30;;;;;;5062082;28;20024;-65
2022/03/27 22:03:42;;;;;;;0.00;0.00;;;12.00;78.10;;;;;;5061924;28;20156;-74
2022/03/27 22:06:10;;;;;;;0.00;0.00;;;11.90;77.30;;;;;;5068552;28;20024;-65
2022/03/27 22:08:37;;;;;;;0.00;0.00;;;11.80;76.90;;;;;;5081978;28;20020;-65
2022/03/27 22:11:11;;;;;;;0.00;0.00;;;11.80;76.30;;;;;;5063336;28;20028;-66
2022/03/27 22:13:38;;;;;;;0.00;0.00;;;11.70;76.10;;;;;;5082134;28;20089;-66
2022/03/27 22:16:05;;;;;;;0.00;0.00;;;11.70;76.40;;;;;;5076037;28;20032;-66
2022/03/27 22:18:31;;;;;;;0.00;0.00;;;11.70;75.50;;;;;;5061756;28;20037;-65
2022/03/27 22:20:57;;;;;;;0.00;0.00;;;11.70;74.40;;;;;;5061245;28;20048;-65
2022/03/27 22:23:23;;;;;;;0.00;0.00;;;11.70;76.50;;;;;;5062188;28;20017;-65
2022/03/27 22:25:49;;;;;;;0.00;0.00;;;11.60;76.90;;;;;;5064484;28;20020;-65
2022/03/27 22:28:15;;;;;;;0.00;0.00;;;11.60;77.20;;;;;;5064112;28;20024;-64
2022/03/27 22:30:45;;;;;;;0.00;0.00;;;11.60;75.10;;;;;;5081782;28;20024;-65
2022/03/27 22:33:12;;;;;;;0.00;0.00;;;11.60;73.60;;;;;;5081916;28;20321;-64
2022/03/27 22:35:38;;;;;;;0.00;0.00;;;11.60;73.90;;;;;;5081791;28;20025;-66
2022/03/27 22:38:05;;;;;;;0.00;0.00;;;11.50;72.70;;;;;;5063411;28;20032;-65
2022/03/27 22:40:32;;;;;;;0.00;0.00;;;11.60;72.30;;;;;;5082088;28;20048;-65
2022/03/27 22:43:00;;;;;;;0.00;0.00;;;11.60;72.50;;;;;;5063445;28;20017;-65
2022/03/27 22:45:27;;;;;;;0.00;0.00;;;11.60;72.20;;;;;;5064229;28;20150;-65
2022/03/27 22:48:13;;;;;;;0.00;0.00;;;11.60;74.20;;;;;;5076117;28;20035;-65
2022/03/27 22:50:39;;;;;;;0.00;0.00;;;11.60;77.30;;;;;;5065107;28;20025;-64
2022/03/27 22:53:05;;;;;;;0.00;0.00;;;11.50;78.10;;;;;;5043367;28;20025;-64
2022/03/27 22:55:31;;;;;;;0.00;0.00;;;11.50;77.50;;;;;;5064491;28;20058;-65
2022/03/27 22:57:57;;;;;;;0.00;0.00;;;11.50;77.40;;;;;;5047324;28;20025;-65
2022/03/27 23:00:22;;;;;;;0.00;0.00;;;11.40;77.60;;;;;;5065555;28;20176;-65
2022/03/27 23:02:51;;;;;;;0.00;0.00;;;11.40;77.60;;;;;;5047105;28;20059;-73
2022/03/27 23:05:18;;;;;;;0.00;0.00;;;11.40;76.90;;;;;;5065469;28;20013;-65
2022/03/27 23:07:44;;;;;;;0.00;0.00;;;11.30;77.30;;;;;;5069835;28;20024;-65
2022/03/27 23:10:10;;;;;;;0.00;0.00;;;11.30;77.40;;;;;;5084373;28;20028;-65
2022/03/27 23:12:36;;;;;;;0.00;0.00;;;11.30;76.80;;;;;;5085320;28;20026;-65
2022/03/27 23:15:04;;;;;;;0.00;0.00;;;11.30;75.50;;;;;;5084770;28;20315;-65
2022/03/27 23:17:30;;;;;;;0.00;0.00;;;11.30;70.80;;;;;;5064610;28;20024;-67
2022/03/27 23:19:55;;;;;;;0.00;0.00;;;11.30;70.50;;;;;;5081102;28;20039;-65
2022/03/27 23:22:22;;;;;;;0.00;0.00;;;11.30;69.30;;;;;;5067276;28;20044;-64
2022/03/27 23:24:49;;;;;;;0.00;0.00;;;11.30;69.90;;;;;;5084689;28;20020;-75
2022/03/27 23:27:16;;;;;;;0.00;0.00;;;11.20;69.90;;;;;;5083942;28;20035;-65
2022/03/27 23:29:42;;;;;;;0.00;0.00;;;11.20;69.30;;;;;;5065496;28;20024;-66
2022/03/27 23:32:10;;;;;;;0.00;0.00;;;11.20;69.70;;;;;;5046207;28;20095;-68
2022/03/27 23:34:36;;;;;;;0.00;0.00;;;11.20;71.30;;;;;;5064834;28;20108;-65
2022/03/27 23:37:03;;;;;;;0.00;0.00;;;11.20;70.70;;;;;;5046438;28;20017;-66
2022/03/27 23:39:29;;;;;;;0.00;0.00;;;11.10;70.00;;;;;;5065520;28;20260;-66
2022/03/27 23:41:55;;;;;;;0.00;0.00;;;11.10;69.40;;;;;;5066245;28;20088;-66
2022/03/27 23:44:20;;;;;;;0.00;0.00;;;11.10;70.50;;;;;;5084849;28;20021;-65
2022/03/27 23:46:46;;;;;;;0.00;0.00;;;11.10;72.00;;;;;;5066538;28;20017;-65
2022/03/27 23:49:12;;;;;;;0.00;0.00;;;11.10;73.10;;;;;;5049796;28;20071;-65
2022/03/27 23:51:38;;;;;;;0.00;0.00;;;11.10;72.40;;;;;;5070447;28;20092;-64
2022/03/27 23:54:04;;;;;;;0.00;0.00;;;11.10;71.90;;;;;;5066107;28;20202;-64
2022/03/27 23:56:30;;;;;;;0.00;0.00;;;11.00;70.90;;;;;;5084586;28;20024;-64
2022/03/27 23:58:57;;;;;;;0.00;0.00;;;11.10;70.40;;;;;;5065859;28;20025;-65
